sensor_id;sensor_type;location;lat;lon;timestamp;P1;durP1;ratioP1;P2;durP2;ratioP2
47958;SDS011;33718;50.910;-1.514;2023-04-12T00:01:07;41.40;;;5.75;;
47958;SDS011;33718;50.910;-1.514;2023-04-12T00:05:16;41.28;;;4.60;;
47958;SDS011;33718;50.910;-1.514;2023-04-12T00:07:17;42.72;;;5.35;;
47958;SDS011;33718;50.910;-1.514;2023-04-12T00:09:24;40.47;;;4.53;;
47958;SDS011;33718;50.910;-1.514;2023-04-12T00:11:25;45.00;;;4.70;;
47958;SDS011;33718;50.910;-1.514;2023-04-12T00:13:31;45.45;;;4.68;;
47958;SDS011;33718;50.910;-1.514;2023-04-12T00:15:32;31.95;;;5.00;;
47958;SDS011;33718;50.910;-1.514;2023-04-12T00:17:34;27.73;;;5.93;;
47958;SDS011;33718;50.910;-1.514;2023-04-12T00:19:35;37.42;;;4.80;;
47958;SDS011;33718;50.910;-1.514;2023-04-12T00:21:44;31.75;;;3.67;;
47958;SDS011;33718;50.910;-1.514;2023-04-12T00:23:46;40.53;;;4.07;;
47958;SDS011;33718;50.910;-1.514;2023-04-12T00:25:47;30.67;;;5.05;;
47958;SDS011;33718;50.910;-1.514;2023-04-12T00:27:49;39.80;;;5.10;;
47958;SDS011;33718;50.910;-1.514;2023-04-12T00:29:50;33.88;;;4.38;;
47958;SDS011;33718;50.910;-1.514;2023-04-12T00:32:10;44.25;;;6.07;;
47958;SDS011;33718;50.910;-1.514;2023-04-12T00:36:20;37.33;;;6.90;;
47958;SDS011;33718;50.910;-1.514;2023-04-12T00:38:22;38.55;;;6.40;;
47958;SDS011;33718;50.910;-1.514;2023-04-12T00:40:23;39.95;;;7.55;;
47958;SDS011;33718;50.910;-1.514;2023-04-12T00:42:44;58.17;;;10.15;;
47958;SDS011;33718;50.910;-1.514;2023-04-12T00:44:46;36.67;;;5.82;;
47958;SDS011;33718;50.910;-1.514;2023-04-12T00:46:50;41.65;;;7.60;;
47958;SDS011;33718;50.910;-1.514;2023-04-12T00:48:56;29.20;;;4.72;;
47958;SDS011;33718;50.910;-1.514;2023-04-12T00:51:00;26.25;;;5.13;;
47958;SDS011;33718;50.910;-1.514;2023-04-12T00:53:06;39.10;;;5.20;;
47958;SDS011;33718;50.910;-1.514;2023-04-12T00:55:12;54.60;;;5.88;;
47958;SDS011;33718;50.910;-1.514;2023-04-12T00:57:16;42.95;;;5.07;;
47958;SDS011;33718;50.910;-1.514;2023-04-12T01:01:21;34.88;;;5.43;;
47958;SDS011;33718;50.910;-1.514;2023-04-12T01:03:23;47.42;;;6.93;;
47958;SDS011;33718;50.910;-1.514;2023-04-12T01:05:32;45.00;;;7.10;;
47958;SDS011;33718;50.910;-1.514;2023-04-12T01:12:06;46.75;;;5.45;;
47958;SDS011;33718;50.910;-1.514;2023-04-12T01:14:22;42.17;;;6.63;;
47958;SDS011;33718;50.910;-1.514;2023-04-12T01:16:34;47.05;;;4.75;;
47958;SDS011;33718;50.910;-1.514;2023-04-12T01:18:39;42.30;;;4.47;;
47958;SDS011;33718;50.910;-1.514;2023-04-12T01:20:57;38.80;;;5.72;;
47958;SDS011;33718;50.910;-1.514;2023-04-12T01:27:47;30.75;;;4.13;;
47958;SDS011;33718;50.910;-1.514;2023-04-12T01:29:56;40.33;;;5.47;;
47958;SDS011;33718;50.910;-1.514;2023-04-12T01:32:05;45.17;;;4.57;;
47958;SDS011;33718;50.910;-1.514;2023-04-12T01:34:14;34.53;;;4.25;;
47958;SDS011;33718;50.910;-1.514;2023-04-12T01:36:20;33.85;;;4.85;;
47958;SDS011;33718;50.910;-1.514;2023-04-12T01:38:34;40.20;;;5.78;;
47958;SDS011;33718;50.910;-1.514;2023-04-12T01:40:45;34.42;;;4.68;;
47958;SDS011;33718;50.910;-1.514;2023-04-12T01:43:03;43.88;;;6.25;;
47958;SDS011;33718;50.910;-1.514;2023-04-12T01:45:10;35.92;;;3.92;;
47958;SDS011;33718;50.910;-1.514;2023-04-12T01:47:23;28.17;;;5.10;;
47958;SDS011;33718;50.910;-1.514;2023-04-12T01:49:31;37.60;;;4.93;;
47958;SDS011;33718;50.910;-1.514;2023-04-12T01:53:59;29.02;;;6.25;;
47958;SDS011;33718;50.910;-1.514;2023-04-12T01:58:10;21.70;;;3.00;;
47958;SDS011;33718;50.910;-1.514;2023-04-12T02:00:20;34.58;;;4.40;;
47958;SDS011;33718;50.910;-1.514;2023-04-12T02:02:23;33.00;;;4.90;;
47958;SDS011;33718;50.910;-1.514;2023-04-12T02:04:27;25.08;;;3.50;;
47958;SDS011;33718;50.910;-1.514;2023-04-12T02:08:36;27.45;;;2.60;;
47958;SDS011;33718;50.910;-1.514;2023-04-12T02:10:40;24.27;;;3.10;;
47958;SDS011;33718;50.910;-1.514;2023-04-12T02:15:05;32.08;;;3.28;;
47958;SDS011;33718;50.910;-1.514;2023-04-12T02:17:08;32.65;;;3.00;;
47958;SDS011;33718;50.910;-1.514;2023-04-12T02:21:16;30.20;;;3.78;;
47958;SDS011;33718;50.910;-1.514;2023-04-12T02:23:36;42.47;;;6.50;;
47958;SDS011;33718;50.910;-1.514;2023-04-12T02:27:43;35.03;;;6.47;;
47958;SDS011;33718;50.910;-1.514;2023-04-12T02:30:03;26.05;;;3.13;;
47958;SDS011;33718;50.910;-1.514;2023-04-12T02:32:05;26.05;;;3.70;;
47958;SDS011;33718;50.910;-1.514;2023-04-12T02:34:06;23.55;;;2.53;;
47958;SDS011;33718;50.910;-1.514;2023-04-12T02:36:14;22.83;;;3.25;;
47958;SDS011;33718;50.910;-1.514;2023-04-12T02:38:18;34.50;;;5.65;;
47958;SDS011;33718;50.910;-1.514;2023-04-12T02:40:19;22.75;;;2.78;;
47958;SDS011;33718;50.910;-1.514;2023-04-12T02:42:41;21.35;;;3.80;;
47958;SDS011;33718;50.910;-1.514;2023-04-12T02:44:45;25.55;;;2.70;;
47958;SDS011;33718;50.910;-1.514;2023-04-12T02:46:48;25.63;;;3.83;;
47958;SDS011;33718;50.910;-1.514;2023-04-12T02:48:52;28.97;;;3.40;;
47958;SDS011;33718;50.910;-1.514;2023-04-12T02:50:53;26.70;;;3.03;;
47958;SDS011;33718;50.910;-1.514;2023-04-12T02:52:58;26.40;;;3.67;;
47958;SDS011;33718;50.910;-1.514;2023-04-12T02:54:59;18.33;;;2.45;;
47958;SDS011;33718;50.910;-1.514;2023-04-12T02:57:01;26.25;;;2.90;;
47958;SDS011;33718;50.910;-1.514;2023-04-12T02:59:06;27.52;;;3.22;;
47958;SDS011;33718;50.910;-1.514;2023-04-12T03:01:11;20.33;;;2.67;;
47958;SDS011;33718;50.910;-1.514;2023-04-12T03:03:33;17.85;;;2.88;;
47958;SDS011;33718;50.910;-1.514;2023-04-12T03:05:35;21.30;;;2.58;;
47958;SDS011;33718;50.910;-1.514;2023-04-12T03:07:36;40.83;;;4.55;;
47958;SDS011;33718;50.910;-1.514;2023-04-12T03:09:41;19.77;;;2.95;;
47958;SDS011;33718;50.910;-1.514;2023-04-12T03:11:47;29.17;;;4.82;;
47958;SDS011;33718;50.910;-1.514;2023-04-12T03:13:51;24.58;;;3.08;;
47958;SDS011;33718;50.910;-1.514;2023-04-12T03:15:57;30.25;;;3.80;;
47958;SDS011;33718;50.910;-1.514;2023-04-12T03:18:02;25.50;;;3.20;;
47958;SDS011;33718;50.910;-1.514;2023-04-12T03:20:07;26.00;;;4.03;;
47958;SDS011;33718;50.910;-1.514;2023-04-12T03:22:10;26.05;;;3.70;;
47958;SDS011;33718;50.910;-1.514;2023-04-12T03:24:12;34.45;;;3.03;;
47958;SDS011;33718;50.910;-1.514;2023-04-12T03:26:13;25.88;;;3.03;;
47958;SDS011;33718;50.910;-1.514;2023-04-12T03:28:15;21.30;;;2.60;;
47958;SDS011;33718;50.910;-1.514;2023-04-12T03:30:19;26.83;;;2.97;;
47958;SDS011;33718;50.910;-1.514;2023-04-12T03:32:21;21.90;;;3.25;;
47958;SDS011;33718;50.910;-1.514;2023-04-12T03:34:25;28.60;;;3.90;;
47958;SDS011;33718;50.910;-1.514;2023-04-12T03:36:32;25.23;;;3.28;;
47958;SDS011;33718;50.910;-1.514;2023-04-12T03:38:37;29.08;;;5.07;;
47958;SDS011;33718;50.910;-1.514;2023-04-12T03:40:38;19.05;;;2.90;;
47958;SDS011;33718;50.910;-1.514;2023-04-12T03:42:39;34.10;;;6.35;;
47958;SDS011;33718;50.910;-1.514;2023-04-12T03:44:41;27.35;;;2.72;;
47958;SDS011;33718;50.910;-1.514;2023-04-12T03:46:43;18.30;;;2.53;;
47958;SDS011;33718;50.910;-1.514;2023-04-12T03:48:44;25.65;;;3.22;;
47958;SDS011;33718;50.910;-1.514;2023-04-12T03:50:46;21.70;;;3.30;;
47958;SDS011;33718;50.910;-1.514;2023-04-12T03:52:51;16.95;;;3.70;;
47958;SDS011;33718;50.910;-1.514;2023-04-12T03:54:55;27.05;;;2.60;;
47958;SDS011;33718;50.910;-1.514;2023-04-12T03:56:57;21.48;;;2.92;;
47958;SDS011;33718;50.910;-1.514;2023-04-12T03:59:01;36.15;;;3.05;;
47958;SDS011;33718;50.910;-1.514;2023-04-12T04:01:06;22.92;;;2.83;;
47958;SDS011;33718;50.910;-1.514;2023-04-12T04:03:10;32.08;;;4.07;;
47958;SDS011;33718;50.910;-1.514;2023-04-12T04:05:12;29.73;;;3.75;;
47958;SDS011;33718;50.910;-1.514;2023-04-12T04:07:16;21.58;;;3.35;;
47958;SDS011;33718;50.910;-1.514;2023-04-12T04:09:18;31.80;;;3.72;;
47958;SDS011;33718;50.910;-1.514;2023-04-12T04:11:23;39.90;;;5.80;;
47958;SDS011;33718;50.910;-1.514;2023-04-12T04:15:38;23.42;;;3.05;;
47958;SDS011;33718;50.910;-1.514;2023-04-12T04:17:52;29.60;;;2.97;;
47958;SDS011;33718;50.910;-1.514;2023-04-12T04:20:10;27.55;;;3.42;;
47958;SDS011;33718;50.910;-1.514;2023-04-12T04:22:27;24.15;;;6.53;;
47958;SDS011;33718;50.910;-1.514;2023-04-12T04:24:43;27.42;;;4.47;;
47958;SDS011;33718;50.910;-1.514;2023-04-12T04:27:13;30.13;;;3.83;;
47958;SDS011;33718;50.910;-1.514;2023-04-12T04:29:26;30.10;;;4.05;;
47958;SDS011;33718;50.910;-1.514;2023-04-12T04:31:38;27.58;;;2.33;;
47958;SDS011;33718;50.910;-1.514;2023-04-12T04:33:48;24.17;;;2.72;;
47958;SDS011;33718;50.910;-1.514;2023-04-12T04:36:03;18.48;;;2.47;;
47958;SDS011;33718;50.910;-1.514;2023-04-12T04:38:14;29.42;;;5.32;;
47958;SDS011;33718;50.910;-1.514;2023-04-12T04:40:27;19.63;;;2.97;;
47958;SDS011;33718;50.910;-1.514;2023-04-12T04:42:37;17.65;;;3.63;;
47958;SDS011;33718;50.910;-1.514;2023-04-12T04:44:50;24.75;;;3.58;;
47958;SDS011;33718;50.910;-1.514;2023-04-12T04:47:08;22.83;;;2.60;;
47958;SDS011;33718;50.910;-1.514;2023-04-12T04:49:09;19.98;;;1.95;;
47958;SDS011;33718;50.910;-1.514;2023-04-12T04:51:14;29.77;;;3.78;;
47958;SDS011;33718;50.910;-1.514;2023-04-12T04:53:16;19.55;;;3.72;;
47958;SDS011;33718;50.910;-1.514;2023-04-12T04:55:18;12.10;;;2.00;;
47958;SDS011;33718;50.910;-1.514;2023-04-12T04:57:28;16.27;;;2.85;;
47958;SDS011;33718;50.910;-1.514;2023-04-12T04:59:32;20.20;;;2.95;;
47958;SDS011;33718;50.910;-1.514;2023-04-12T05:01:34;14.25;;;1.38;;
47958;SDS011;33718;50.910;-1.514;2023-04-12T05:03:36;17.10;;;2.22;;
47958;SDS011;33718;50.910;-1.514;2023-04-12T05:05:41;16.90;;;2.30;;
47958;SDS011;33718;50.910;-1.514;2023-04-12T05:09:47;22.27;;;3.75;;
47958;SDS011;33718;50.910;-1.514;2023-04-12T05:11:51;18.85;;;2.67;;
47958;SDS011;33718;50.910;-1.514;2023-04-12T05:13:53;15.02;;;1.77;;
47958;SDS011;33718;50.910;-1.514;2023-04-12T05:15:57;25.08;;;2.53;;
47958;SDS011;33718;50.910;-1.514;2023-04-12T05:17:59;22.73;;;2.10;;
47958;SDS011;33718;50.910;-1.514;2023-04-12T05:20:00;19.67;;;2.35;;
47958;SDS011;33718;50.910;-1.514;2023-04-12T05:22:04;15.60;;;1.73;;
47958;SDS011;33718;50.910;-1.514;2023-04-12T05:24:05;21.00;;;2.25;;
47958;SDS011;33718;50.910;-1.514;2023-04-12T05:26:10;17.83;;;1.90;;
47958;SDS011;33718;50.910;-1.514;2023-04-12T05:28:14;20.70;;;3.92;;
47958;SDS011;33718;50.910;-1.514;2023-04-12T05:30:36;28.10;;;4.55;;
47958;SDS011;33718;50.910;-1.514;2023-04-12T05:32:43;18.15;;;3.33;;
47958;SDS011;33718;50.910;-1.514;2023-04-12T05:34:44;15.50;;;1.98;;
47958;SDS011;33718;50.910;-1.514;2023-04-12T05:38:50;14.55;;;3.33;;
47958;SDS011;33718;50.910;-1.514;2023-04-12T05:40:52;15.35;;;2.50;;
47958;SDS011;33718;50.910;-1.514;2023-04-12T05:42:57;19.83;;;1.75;;
47958;SDS011;33718;50.910;-1.514;2023-04-12T05:47:03;13.95;;;2.45;;
47958;SDS011;33718;50.910;-1.514;2023-04-12T05:49:07;21.50;;;2.63;;
47958;SDS011;33718;50.910;-1.514;2023-04-12T05:51:08;15.30;;;2.05;;
47958;SDS011;33718;50.910;-1.514;2023-04-12T05:53:10;20.05;;;2.65;;
47958;SDS011;33718;50.910;-1.514;2023-04-12T05:55:14;21.95;;;2.80;;
47958;SDS011;33718;50.910;-1.514;2023-04-12T05:57:16;15.73;;;2.40;;
47958;SDS011;33718;50.910;-1.514;2023-04-12T05:59:20;15.15;;;3.47;;
47958;SDS011;33718;50.910;-1.514;2023-04-12T06:01:22;13.25;;;1.83;;
47958;SDS011;33718;50.910;-1.514;2023-04-12T06:03:27;19.80;;;2.53;;
47958;SDS011;33718;50.910;-1.514;2023-04-12T06:05:33;13.07;;;2.33;;
47958;SDS011;33718;50.910;-1.514;2023-04-12T06:07:38;16.48;;;2.30;;
47958;SDS011;33718;50.910;-1.514;2023-04-12T06:09:39;25.70;;;2.05;;
47958;SDS011;33718;50.910;-1.514;2023-04-12T06:11:45;18.88;;;2.08;;
47958;SDS011;33718;50.910;-1.514;2023-04-12T06:13:50;14.70;;;1.73;;
47958;SDS011;33718;50.910;-1.514;2023-04-12T06:15:54;11.57;;;2.85;;
47958;SDS011;33718;50.910;-1.514;2023-04-12T06:17:56;14.35;;;1.77;;
47958;SDS011;33718;50.910;-1.514;2023-04-12T06:20:02;13.93;;;1.52;;
47958;SDS011;33718;50.910;-1.514;2023-04-12T06:22:25;11.65;;;1.90;;
47958;SDS011;33718;50.910;-1.514;2023-04-12T06:24:27;17.23;;;2.28;;
47958;SDS011;33718;50.910;-1.514;2023-04-12T06:26:29;12.93;;;2.65;;
47958;SDS011;33718;50.910;-1.514;2023-04-12T06:28:42;17.60;;;2.83;;
47958;SDS011;33718;50.910;-1.514;2023-04-12T06:30:47;10.13;;;2.20;;
47958;SDS011;33718;50.910;-1.514;2023-04-12T06:32:48;8.95;;;1.92;;
47958;SDS011;33718;50.910;-1.514;2023-04-12T06:34:50;23.10;;;3.58;;
47958;SDS011;33718;50.910;-1.514;2023-04-12T06:36:51;14.45;;;2.17;;
47958;SDS011;33718;50.910;-1.514;2023-04-12T06:38:56;16.60;;;1.95;;
47958;SDS011;33718;50.910;-1.514;2023-04-12T06:41:00;13.18;;;1.67;;
47958;SDS011;33718;50.910;-1.514;2023-04-12T06:43:02;15.25;;;1.73;;
47958;SDS011;33718;50.910;-1.514;2023-04-12T06:45:22;27.45;;;3.67;;
47958;SDS011;33718;50.910;-1.514;2023-04-12T06:47:24;18.05;;;1.75;;
47958;SDS011;33718;50.910;-1.514;2023-04-12T06:49:25;19.33;;;2.60;;
47958;SDS011;33718;50.910;-1.514;2023-04-12T06:51:30;12.13;;;1.90;;
47958;SDS011;33718;50.910;-1.514;2023-04-12T06:53:34;17.88;;;2.35;;
47958;SDS011;33718;50.910;-1.514;2023-04-12T06:55:41;13.45;;;1.90;;
47958;SDS011;33718;50.910;-1.514;2023-04-12T06:57:42;9.88;;;1.48;;
47958;SDS011;33718;50.910;-1.514;2023-04-12T06:59:47;17.02;;;2.08;;
47958;SDS011;33718;50.910;-1.514;2023-04-12T07:01:49;14.48;;;1.48;;
47958;SDS011;33718;50.910;-1.514;2023-04-12T07:04:09;18.02;;;1.90;;
47958;SDS011;33718;50.910;-1.514;2023-04-12T07:06:14;12.30;;;2.20;;
47958;SDS011;33718;50.910;-1.514;2023-04-12T07:08:28;10.00;;;1.35;;
47958;SDS011;33718;50.910;-1.514;2023-04-12T07:10:33;10.25;;;1.50;;
47958;SDS011;33718;50.910;-1.514;2023-04-12T07:12:36;15.55;;;1.90;;
47958;SDS011;33718;50.910;-1.514;2023-04-12T07:14:37;7.32;;;1.30;;
47958;SDS011;33718;50.910;-1.514;2023-04-12T07:16:42;10.15;;;1.50;;
47958;SDS011;33718;50.910;-1.514;2023-04-12T07:18:49;10.68;;;1.77;;
47958;SDS011;33718;50.910;-1.514;2023-04-12T07:20:58;11.15;;;1.10;;
47958;SDS011;33718;50.910;-1.514;2023-04-12T07:23:13;8.57;;;1.00;;
47958;SDS011;33718;50.910;-1.514;2023-04-12T07:25:26;8.23;;;0.80;;
47958;SDS011;33718;50.910;-1.514;2023-04-12T07:27:41;7.80;;;1.63;;
47958;SDS011;33718;50.910;-1.514;2023-04-12T07:29:59;9.82;;;2.13;;
47958;SDS011;33718;50.910;-1.514;2023-04-12T07:32:15;3.85;;;0.82;;
47958;SDS011;33718;50.910;-1.514;2023-04-12T07:34:45;3.55;;;0.50;;
47958;SDS011;33718;50.910;-1.514;2023-04-12T07:36:53;2.58;;;0.50;;
47958;SDS011;33718;50.910;-1.514;2023-04-12T07:39:05;4.13;;;0.60;;
47958;SDS011;33718;50.910;-1.514;2023-04-12T07:41:24;2.55;;;0.50;;
47958;SDS011;33718;50.910;-1.514;2023-04-12T07:43:36;5.10;;;0.70;;
47958;SDS011;33718;50.910;-1.514;2023-04-12T07:45:46;2.80;;;0.60;;
47958;SDS011;33718;50.910;-1.514;2023-04-12T07:47:53;7.07;;;0.60;;
47958;SDS011;33718;50.910;-1.514;2023-04-12T07:50:04;4.40;;;1.30;;
47958;SDS011;33718;50.910;-1.514;2023-04-12T07:54:30;5.05;;;1.13;;
47958;SDS011;33718;50.910;-1.514;2023-04-12T07:56:32;4.63;;;0.82;;
47958;SDS011;33718;50.910;-1.514;2023-04-12T07:58:36;9.85;;;1.35;;
47958;SDS011;33718;50.910;-1.514;2023-04-12T08:00:57;6.03;;;1.33;;
47958;SDS011;33718;50.910;-1.514;2023-04-12T08:03:20;6.47;;;0.93;;
47958;SDS011;33718;50.910;-1.514;2023-04-12T08:05:40;6.72;;;1.10;;
47958;SDS011;33718;50.910;-1.514;2023-04-12T08:07:45;7.60;;;0.70;;
47958;SDS011;33718;50.910;-1.514;2023-04-12T08:09:46;8.45;;;1.30;;
47958;SDS011;33718;50.910;-1.514;2023-04-12T08:11:51;3.38;;;1.08;;
47958;SDS011;33718;50.910;-1.514;2023-04-12T08:13:56;7.30;;;1.10;;
47958;SDS011;33718;50.910;-1.514;2023-04-12T08:16:00;4.55;;;1.13;;
47958;SDS011;33718;50.910;-1.514;2023-04-12T08:18:02;8.23;;;1.13;;
47958;SDS011;33718;50.910;-1.514;2023-04-12T08:20:04;4.45;;;1.33;;
47958;SDS011;33718;50.910;-1.514;2023-04-12T08:22:09;6.32;;;1.17;;
47958;SDS011;33718;50.910;-1.514;2023-04-12T08:24:13;4.13;;;1.17;;
47958;SDS011;33718;50.910;-1.514;2023-04-12T08:26:18;3.75;;;1.23;;
47958;SDS011;33718;50.910;-1.514;2023-04-12T08:28:22;5.72;;;1.40;;
47958;SDS011;33718;50.910;-1.514;2023-04-12T08:30:24;6.93;;;1.27;;
47958;SDS011;33718;50.910;-1.514;2023-04-12T08:32:29;3.58;;;1.08;;
47958;SDS011;33718;50.910;-1.514;2023-04-12T08:34:50;4.82;;;0.90;;
47958;SDS011;33718;50.910;-1.514;2023-04-12T08:36:51;9.55;;;1.30;;
47958;SDS011;33718;50.910;-1.514;2023-04-12T08:38:56;5.68;;;1.10;;
47958;SDS011;33718;50.910;-1.514;2023-04-12T08:40:58;6.13;;;1.00;;
47958;SDS011;33718;50.910;-1.514;2023-04-12T08:43:22;7.78;;;0.95;;
47958;SDS011;33718;50.910;-1.514;2023-04-12T08:45:31;9.23;;;1.55;;
47958;SDS011;33718;50.910;-1.514;2023-04-12T08:47:44;8.25;;;0.73;;
47958;SDS011;33718;50.910;-1.514;2023-04-12T08:49:46;8.35;;;1.98;;
47958;SDS011;33718;50.910;-1.514;2023-04-12T08:51:54;7.43;;;1.00;;
47958;SDS011;33718;50.910;-1.514;2023-04-12T08:53:58;14.48;;;1.60;;
47958;SDS011;33718;50.910;-1.514;2023-04-12T08:56:00;12.95;;;1.95;;
47958;SDS011;33718;50.910;-1.514;2023-04-12T08:58:02;7.07;;;1.45;;
47958;SDS011;33718;50.910;-1.514;2023-04-12T09:00:26;10.90;;;1.00;;
47958;SDS011;33718;50.910;-1.514;2023-04-12T09:02:28;8.82;;;1.42;;
47958;SDS011;33718;50.910;-1.514;2023-04-12T09:04:49;7.38;;;1.58;;
47958;SDS011;33718;50.910;-1.514;2023-04-12T09:06:51;7.63;;;1.60;;
47958;SDS011;33718;50.910;-1.514;2023-04-12T09:08:53;7.25;;;1.15;;
47958;SDS011;33718;50.910;-1.514;2023-04-12T09:10:57;4.68;;;1.75;;
47958;SDS011;33718;50.910;-1.514;2023-04-12T09:12:59;7.32;;;1.40;;
47958;SDS011;33718;50.910;-1.514;2023-04-12T09:15:07;5.28;;;1.20;;
47958;SDS011;33718;50.910;-1.514;2023-04-12T09:17:22;5.75;;;1.40;;
47958;SDS011;33718;50.910;-1.514;2023-04-12T09:19:30;9.23;;;1.77;;
47958;SDS011;33718;50.910;-1.514;2023-04-12T09:21:35;10.13;;;1.55;;
47958;SDS011;33718;50.910;-1.514;2023-04-12T09:23:40;10.43;;;2.03;;
47958;SDS011;33718;50.910;-1.514;2023-04-12T09:25:44;8.35;;;1.90;;
47958;SDS011;33718;50.910;-1.514;2023-04-12T09:27:50;5.38;;;1.23;;
47958;SDS011;33718;50.910;-1.514;2023-04-12T09:30:06;5.30;;;1.35;;
47958;SDS011;33718;50.910;-1.514;2023-04-12T09:32:08;8.13;;;2.05;;
47958;SDS011;33718;50.910;-1.514;2023-04-12T09:34:12;6.20;;;1.67;;
47958;SDS011;33718;50.910;-1.514;2023-04-12T09:36:16;7.88;;;1.70;;
47958;SDS011;33718;50.910;-1.514;2023-04-12T09:38:22;8.40;;;1.70;;
47958;SDS011;33718;50.910;-1.514;2023-04-12T09:40:23;7.45;;;1.83;;
47958;SDS011;33718;50.910;-1.514;2023-04-12T09:42:25;9.50;;;1.65;;
47958;SDS011;33718;50.910;-1.514;2023-04-12T09:44:34;5.20;;;1.38;;
47958;SDS011;33718;50.910;-1.514;2023-04-12T09:46:36;11.70;;;2.40;;
47958;SDS011;33718;50.910;-1.514;2023-04-12T09:48:51;6.40;;;1.55;;
47958;SDS011;33718;50.910;-1.514;2023-04-12T09:50:58;6.63;;;1.63;;
47958;SDS011;33718;50.910;-1.514;2023-04-12T09:53:11;5.97;;;1.63;;
47958;SDS011;33718;50.910;-1.514;2023-04-12T09:55:18;10.98;;;1.95;;
47958;SDS011;33718;50.910;-1.514;2023-04-12T09:57:23;13.45;;;2.78;;
47958;SDS011;33718;50.910;-1.514;2023-04-12T09:59:45;9.35;;;1.67;;
47958;SDS011;33718;50.910;-1.514;2023-04-12T10:01:50;8.30;;;2.25;;
47958;SDS011;33718;50.910;-1.514;2023-04-12T10:03:52;13.88;;;1.98;;
47958;SDS011;33718;50.910;-1.514;2023-04-12T10:05:55;10.25;;;2.60;;
47958;SDS011;33718;50.910;-1.514;2023-04-12T10:07:59;11.18;;;2.58;;
47958;SDS011;33718;50.910;-1.514;2023-04-12T10:10:19;10.50;;;2.38;;
47958;SDS011;33718;50.910;-1.514;2023-04-12T10:12:21;16.17;;;2.17;;
47958;SDS011;33718;50.910;-1.514;2023-04-12T10:14:26;14.70;;;2.85;;
47958;SDS011;33718;50.910;-1.514;2023-04-12T10:16:28;12.35;;;2.40;;
47958;SDS011;33718;50.910;-1.514;2023-04-12T10:18:30;10.48;;;2.17;;
47958;SDS011;33718;50.910;-1.514;2023-04-12T10:20:38;12.73;;;2.08;;
47958;SDS011;33718;50.910;-1.514;2023-04-12T10:22:40;14.82;;;2.50;;
47958;SDS011;33718;50.910;-1.514;2023-04-12T10:24:44;14.30;;;2.05;;
47958;SDS011;33718;50.910;-1.514;2023-04-12T10:26:52;7.82;;;1.75;;
47958;SDS011;33718;50.910;-1.514;2023-04-12T10:31:27;13.10;;;2.72;;
47958;SDS011;33718;50.910;-1.514;2023-04-12T10:33:31;20.60;;;3.20;;
47958;SDS011;33718;50.910;-1.514;2023-04-12T10:35:53;18.70;;;3.58;;
47958;SDS011;33718;50.910;-1.514;2023-04-12T10:38:04;20.90;;;3.47;;
47958;SDS011;33718;50.910;-1.514;2023-04-12T10:40:08;25.52;;;3.78;;
47958;SDS011;33718;50.910;-1.514;2023-04-12T10:42:28;15.32;;;2.97;;
47958;SDS011;33718;50.910;-1.514;2023-04-12T10:44:31;20.77;;;4.00;;
47958;SDS011;33718;50.910;-1.514;2023-04-12T10:48:51;15.25;;;2.47;;
47958;SDS011;33718;50.910;-1.514;2023-04-12T10:55:26;15.68;;;2.35;;
47958;SDS011;33718;50.910;-1.514;2023-04-12T10:57:39;13.70;;;2.45;;
47958;SDS011;33718;50.910;-1.514;2023-04-12T10:59:51;17.67;;;2.47;;
47958;SDS011;33718;50.910;-1.514;2023-04-12T11:02:10;14.40;;;2.30;;
47958;SDS011;33718;50.910;-1.514;2023-04-12T11:04:21;18.85;;;1.98;;
47958;SDS011;33718;50.910;-1.514;2023-04-12T11:06:40;15.38;;;2.00;;
47958;SDS011;33718;50.910;-1.514;2023-04-12T11:08:42;13.23;;;2.40;;
47958;SDS011;33718;50.910;-1.514;2023-04-12T11:10:46;15.35;;;2.53;;
47958;SDS011;33718;50.910;-1.514;2023-04-12T11:12:48;13.37;;;2.63;;
47958;SDS011;33718;50.910;-1.514;2023-04-12T11:14:50;15.43;;;2.72;;
47958;SDS011;33718;50.910;-1.514;2023-04-12T11:19:06;14.80;;;2.53;;
47958;SDS011;33718;50.910;-1.514;2023-04-12T11:21:10;12.90;;;2.75;;
47958;SDS011;33718;50.910;-1.514;2023-04-12T11:23:11;21.13;;;3.35;;
47958;SDS011;33718;50.910;-1.514;2023-04-12T11:25:16;17.42;;;3.25;;
47958;SDS011;33718;50.910;-1.514;2023-04-12T11:27:22;18.83;;;3.45;;
47958;SDS011;33718;50.910;-1.514;2023-04-12T11:29:24;24.17;;;5.25;;
47958;SDS011;33718;50.910;-1.514;2023-04-12T11:31:45;19.38;;;3.60;;
47958;SDS011;33718;50.910;-1.514;2023-04-12T11:33:50;25.67;;;4.05;;
47958;SDS011;33718;50.910;-1.514;2023-04-12T11:35:51;22.63;;;2.65;;
47958;SDS011;33718;50.910;-1.514;2023-04-12T11:37:53;22.00;;;3.45;;
47958;SDS011;33718;50.910;-1.514;2023-04-12T11:39:56;10.75;;;2.38;;
47958;SDS011;33718;50.910;-1.514;2023-04-12T11:42:01;19.52;;;3.35;;
47958;SDS011;33718;50.910;-1.514;2023-04-12T11:44:06;16.37;;;2.77;;
47958;SDS011;33718;50.910;-1.514;2023-04-12T11:46:10;17.17;;;3.60;;
47958;SDS011;33718;50.910;-1.514;2023-04-12T11:48:15;18.08;;;2.63;;
47958;SDS011;33718;50.910;-1.514;2023-04-12T11:50:28;20.25;;;3.20;;
47958;SDS011;33718;50.910;-1.514;2023-04-12T11:52:34;22.38;;;3.35;;
47958;SDS011;33718;50.910;-1.514;2023-04-12T11:54:42;21.67;;;4.47;;
47958;SDS011;33718;50.910;-1.514;2023-04-12T11:56:46;28.92;;;3.90;;
47958;SDS011;33718;50.910;-1.514;2023-04-12T11:58:48;20.42;;;3.28;;
47958;SDS011;33718;50.910;-1.514;2023-04-12T12:00:50;23.20;;;4.95;;
47958;SDS011;33718;50.910;-1.514;2023-04-12T12:02:52;29.77;;;4.78;;
47958;SDS011;33718;50.910;-1.514;2023-04-12T12:05:08;23.15;;;3.75;;
47958;SDS011;33718;50.910;-1.514;2023-04-12T12:07:13;25.25;;;3.83;;
47958;SDS011;33718;50.910;-1.514;2023-04-12T12:09:15;20.33;;;4.40;;
47958;SDS011;33718;50.910;-1.514;2023-04-12T12:11:20;24.08;;;3.97;;
47958;SDS011;33718;50.910;-1.514;2023-04-12T12:13:22;28.20;;;5.85;;
47958;SDS011;33718;50.910;-1.514;2023-04-12T12:15:23;32.85;;;5.38;;
47958;SDS011;33718;50.910;-1.514;2023-04-12T12:17:37;28.95;;;5.03;;
47958;SDS011;33718;50.910;-1.514;2023-04-12T12:19:43;33.85;;;5.43;;
47958;SDS011;33718;50.910;-1.514;2023-04-12T12:21:45;15.30;;;3.58;;
47958;SDS011;33718;50.910;-1.514;2023-04-12T12:24:06;11.80;;;1.70;;
47958;SDS011;33718;50.910;-1.514;2023-04-12T12:26:17;14.48;;;2.55;;
47958;SDS011;33718;50.910;-1.514;2023-04-12T12:28:22;15.93;;;3.10;;
47958;SDS011;33718;50.910;-1.514;2023-04-12T12:30:23;10.68;;;2.03;;
47958;SDS011;33718;50.910;-1.514;2023-04-12T12:32:25;22.70;;;5.18;;
47958;SDS011;33718;50.910;-1.514;2023-04-12T12:34:31;12.10;;;2.22;;
47958;SDS011;33718;50.910;-1.514;2023-04-12T12:36:35;14.50;;;2.47;;
47958;SDS011;33718;50.910;-1.514;2023-04-12T12:38:41;17.48;;;3.50;;
47958;SDS011;33718;50.910;-1.514;2023-04-12T12:40:46;18.80;;;3.22;;
47958;SDS011;33718;50.910;-1.514;2023-04-12T12:42:51;20.77;;;2.78;;
47958;SDS011;33718;50.910;-1.514;2023-04-12T12:44:54;15.85;;;4.18;;
47958;SDS011;33718;50.910;-1.514;2023-04-12T12:46:59;17.75;;;2.38;;
47958;SDS011;33718;50.910;-1.514;2023-04-12T12:49:20;14.88;;;2.42;;
47958;SDS011;33718;50.910;-1.514;2023-04-12T12:51:21;14.57;;;3.17;;
47958;SDS011;33718;50.910;-1.514;2023-04-12T12:53:23;24.60;;;2.78;;
47958;SDS011;33718;50.910;-1.514;2023-04-12T12:55:28;16.95;;;3.35;;
47958;SDS011;33718;50.910;-1.514;2023-04-12T12:57:53;15.43;;;2.47;;
47958;SDS011;33718;50.910;-1.514;2023-04-12T13:00:26;16.75;;;4.32;;
47958;SDS011;33718;50.910;-1.514;2023-04-12T13:02:31;19.25;;;3.25;;
47958;SDS011;33718;50.910;-1.514;2023-04-12T13:04:33;11.55;;;2.58;;
47958;SDS011;33718;50.910;-1.514;2023-04-12T13:06:34;6.20;;;1.30;;
47958;SDS011;33718;50.910;-1.514;2023-04-12T13:08:35;8.27;;;0.82;;
47958;SDS011;33718;50.910;-1.514;2023-04-12T13:10:37;11.95;;;1.52;;
47958;SDS011;33718;50.910;-1.514;2023-04-12T13:12:39;1.88;;;0.60;;